sensor_id;sensor_type;location;lat;lon;timestamp;temperature;humidity
73360;DHT22;63092;43.582;19.528;2023-11-18T00:00:51;6.50;99.90
73360;DHT22;63092;43.582;19.528;2023-11-18T00:03:17;6.60;99.90
73360;DHT22;63092;43.582;19.528;2023-11-18T00:05:43;6.70;99.90
73360;DHT22;63092;43.582;19.528;2023-11-18T00:08:09;6.60;99.90
73360;DHT22;63092;43.582;19.528;2023-11-18T00:10:34;6.70;99.90
73360;DHT22;63092;43.582;19.528;2023-11-18T00:13:00;6.60;99.90
73360;DHT22;63092;43.582;19.528;2023-11-18T00:15:27;6.60;99.90
73360;DHT22;63092;43.582;19.528;2023-11-18T00:17:53;6.60;99.90
73360;DHT22;63092;43.582;19.528;2023-11-18T00:20:18;6.60;99.90
73360;DHT22;63092;43.582;19.528;2023-11-18T00:22:46;6.60;99.90
73360;DHT22;63092;43.582;19.528;2023-11-18T00:25:11;6.60;99.90
73360;DHT22;63092;43.582;19.528;2023-11-18T00:27:39;6.60;99.90
73360;DHT22;63092;43.582;19.528;2023-11-18T00:30:06;6.60;99.90
73360;DHT22;63092;43.582;19.528;2023-11-18T00:32:33;6.60;99.90
73360;DHT22;63092;43.582;19.528;2023-11-18T00:35:01;6.60;99.90
73360;DHT22;63092;43.582;19.528;2023-11-18T00:37:26;6.60;99.90
73360;DHT22;63092;43.582;19.528;2023-11-18T00:39:52;6.80;99.90
73360;DHT22;63092;43.582;19.528;2023-11-18T00:42:18;6.80;99.90
73360;DHT22;63092;43.582;19.528;2023-11-18T00:44:44;6.90;99.90
73360;DHT22;63092;43.582;19.528;2023-11-18T00:47:09;6.80;99.90
73360;DHT22;63092;43.582;19.528;2023-11-18T00:49:35;6.90;99.90
73360;DHT22;63092;43.582;19.528;2023-11-18T00:52:01;6.90;99.90
73360;DHT22;63092;43.582;19.528;2023-11-18T00:54:27;6.90;99.90
73360;DHT22;63092;43.582;19.528;2023-11-18T00:56:53;6.80;99.90
73360;DHT22;63092;43.582;19.528;2023-11-18T00:59:18;6.80;99.90
73360;DHT22;63092;43.582;19.528;2023-11-18T01:01:44;6.80;99.90
73360;DHT22;63092;43.582;19.528;2023-11-18T01:04:10;6.80;99.90
73360;DHT22;63092;43.582;19.528;2023-11-18T01:06:36;6.70;99.90
73360;DHT22;63092;43.582;19.528;2023-11-18T01:09:01;6.60;99.90
73360;DHT22;63092;43.582;19.528;2023-11-18T01:11:27;6.60;99.90
73360;DHT22;63092;43.582;19.528;2023-11-18T01:13:53;6.70;99.90
73360;DHT22;63092;43.582;19.528;2023-11-18T01:16:20;6.70;99.90
73360;DHT22;63092;43.582;19.528;2023-11-18T01:18:46;6.70;99.90
73360;DHT22;63092;43.582;19.528;2023-11-18T01:21:12;6.70;99.90
73360;DHT22;63092;43.582;19.528;2023-11-18T01:23:38;6.70;99.90
73360;DHT22;63092;43.582;19.528;2023-11-18T01:26:08;6.60;99.90
73360;DHT22;63092;43.582;19.528;2023-11-18T01:28:34;6.70;99.90
73360;DHT22;63092;43.582;19.528;2023-11-18T01:31:07;6.60;99.90
73360;DHT22;63092;43.582;19.528;2023-11-18T01:33:38;6.60;99.90
73360;DHT22;63092;43.582;19.528;2023-11-18T01:36:08;6.60;99.90
73360;DHT22;63092;43.582;19.528;2023-11-18T01:38:35;6.60;99.90
73360;DHT22;63092;43.582;19.528;2023-11-18T01:41:01;6.60;99.90
73360;DHT22;63092;43.582;19.528;2023-11-18T01:43:28;6.60;99.90
73360;DHT22;63092;43.582;19.528;2023-11-18T01:45:59;6.50;99.90
73360;DHT22;63092;43.582;19.528;2023-11-18T01:48:28;6.50;99.90
73360;DHT22;63092;43.582;19.528;2023-11-18T01:50:58;6.50;99.90
73360;DHT22;63092;43.582;19.528;2023-11-18T01:53:25;6.50;99.90
73360;DHT22;63092;43.582;19.528;2023-11-18T01:55:53;6.50;99.90
73360;DHT22;63092;43.582;19.528;2023-11-18T01:58:20;6.40;99.90
73360;DHT22;63092;43.582;19.528;2023-11-18T02:00:49;6.40;99.90
73360;DHT22;63092;43.582;19.528;2023-11-18T02:03:17;6.50;99.90
73360;DHT22;63092;43.582;19.528;2023-11-18T02:05:43;6.50;99.90
73360;DHT22;63092;43.582;19.528;2023-11-18T02:08:10;6.50;99.90
73360;DHT22;63092;43.582;19.528;2023-11-18T02:10:56;6.40;99.90
73360;DHT22;63092;43.582;19.528;2023-11-18T02:13:24;6.50;99.90
73360;DHT22;63092;43.582;19.528;2023-11-18T02:15:56;6.50;99.90
73360;DHT22;63092;43.582;19.528;2023-11-18T02:18:28;6.50;99.50
73360;DHT22;63092;43.582;19.528;2023-11-18T02:20:55;6.50;99.60
73360;DHT22;63092;43.582;19.528;2023-11-18T02:23:24;6.50;99.90
73360;DHT22;63092;43.582;19.528;2023-11-18T02:25:52;6.50;99.40
73360;DHT22;63092;43.582;19.528;2023-11-18T02:28:18;6.50;99.90
73360;DHT22;63092;43.582;19.528;2023-11-18T02:30:45;6.50;98.90
73360;DHT22;63092;43.582;19.528;2023-11-18T02:33:33;6.40;99.10
73360;DHT22;63092;43.582;19.528;2023-11-18T02:36:09;6.30;98.70
73360;DHT22;63092;43.582;19.528;2023-11-18T02:38:39;6.20;99.10
73360;DHT22;63092;43.582;19.528;2023-11-18T02:41:12;6.20;98.90
73360;DHT22;63092;43.582;19.528;2023-11-18T02:43:39;6.20;99.50
73360;DHT22;63092;43.582;19.528;2023-11-18T02:46:07;6.20;99.20
73360;DHT22;63092;43.582;19.528;2023-11-18T02:48:33;6.10;98.80
73360;DHT22;63092;43.582;19.528;2023-11-18T02:50:59;6.20;99.60
73360;DHT22;63092;43.582;19.528;2023-11-18T02:53:25;6.20;99.60
73360;DHT22;63092;43.582;19.528;2023-11-18T02:55:51;6.20;98.90
73360;DHT22;63092;43.582;19.528;2023-11-18T02:58:18;6.20;99.80
73360;DHT22;63092;43.582;19.528;2023-11-18T03:00:44;6.20;99.00
73360;DHT22;63092;43.582;19.528;2023-11-18T03:03:11;6.20;98.80
73360;DHT22;63092;43.582;19.528;2023-11-18T03:05:37;6.20;98.30
73360;DHT22;63092;43.582;19.528;2023-11-18T03:08:03;6.20;98.90
73360;DHT22;63092;43.582;19.528;2023-11-18T03:10:34;6.20;98.30
73360;DHT22;63092;43.582;19.528;2023-11-18T03:13:01;6.20;98.00
73360;DHT22;63092;43.582;19.528;2023-11-18T03:15:28;6.20;98.70
73360;DHT22;63092;43.582;19.528;2023-11-18T03:17:54;6.00;97.90
73360;DHT22;63092;43.582;19.528;2023-11-18T03:20:22;6.00;97.30
73360;DHT22;63092;43.582;19.528;2023-11-18T03:22:49;6.10;98.50
73360;DHT22;63092;43.582;19.528;2023-11-18T03:25:16;6.10;98.00
73360;DHT22;63092;43.582;19.528;2023-11-18T03:27:42;6.10;97.70
73360;DHT22;63092;43.582;19.528;2023-11-18T03:30:09;6.20;98.10
73360;DHT22;63092;43.582;19.528;2023-11-18T03:32:35;6.20;98.50
73360;DHT22;63092;43.582;19.528;2023-11-18T03:35:05;6.10;98.20
73360;DHT22;63092;43.582;19.528;2023-11-18T03:37:38;6.20;97.60
73360;DHT22;63092;43.582;19.528;2023-11-18T03:40:10;6.20;96.60
73360;DHT22;63092;43.582;19.528;2023-11-18T03:42:37;6.20;97.10
73360;DHT22;63092;43.582;19.528;2023-11-18T03:45:03;6.10;96.90
73360;DHT22;63092;43.582;19.528;2023-11-18T03:47:30;6.10;96.00
73360;DHT22;63092;43.582;19.528;2023-11-18T03:49:56;6.10;97.00
73360;DHT22;63092;43.582;19.528;2023-11-18T03:52:22;6.00;96.30
73360;DHT22;63092;43.582;19.528;2023-11-18T03:54:48;6.00;95.60
73360;DHT22;63092;43.582;19.528;2023-11-18T03:57:14;6.00;95.90
73360;DHT22;63092;43.582;19.528;2023-11-18T03:59:40;6.00;95.40
73360;DHT22;63092;43.582;19.528;2023-11-18T04:02:09;6.00;94.90
73360;DHT22;63092;43.582;19.528;2023-11-18T04:04:37;5.90;94.70
73360;DHT22;63092;43.582;19.528;2023-11-18T04:07:03;5.90;95.00
73360;DHT22;63092;43.582;19.528;2023-11-18T04:09:29;6.00;95.50
73360;DHT22;63092;43.582;19.528;2023-11-18T04:11:55;6.00;95.40
73360;DHT22;63092;43.582;19.528;2023-11-18T04:14:21;6.00;95.10
73360;DHT22;63092;43.582;19.528;2023-11-18T04:16:48;6.10;95.00
73360;DHT22;63092;43.582;19.528;2023-11-18T04:19:16;6.10;94.90
73360;DHT22;63092;43.582;19.528;2023-11-18T04:21:42;6.00;95.10
73360;DHT22;63092;43.582;19.528;2023-11-18T04:24:13;6.10;95.30
73360;DHT22;63092;43.582;19.528;2023-11-18T04:26:38;6.10;95.30
73360;DHT22;63092;43.582;19.528;2023-11-18T04:29:04;6.10;95.10
73360;DHT22;63092;43.582;19.528;2023-11-18T04:31:30;6.10;94.90
73360;DHT22;63092;43.582;19.528;2023-11-18T04:33:55;6.20;95.50
73360;DHT22;63092;43.582;19.528;2023-11-18T04:36:21;6.20;95.30
73360;DHT22;63092;43.582;19.528;2023-11-18T04:38:48;6.20;95.00
73360;DHT22;63092;43.582;19.528;2023-11-18T04:41:15;6.20;95.10
73360;DHT22;63092;43.582;19.528;2023-11-18T04:43:40;6.20;94.60
73360;DHT22;63092;43.582;19.528;2023-11-18T04:46:07;6.10;94.80
73360;DHT22;63092;43.582;19.528;2023-11-18T04:48:34;6.10;94.90
73360;DHT22;63092;43.582;19.528;2023-11-18T04:51:00;6.10;94.60
73360;DHT22;63092;43.582;19.528;2023-11-18T04:53:26;6.10;94.60
73360;DHT22;63092;43.582;19.528;2023-11-18T04:55:52;6.00;94.90
73360;DHT22;63092;43.582;19.528;2023-11-18T04:58:18;6.00;94.60
73360;DHT22;63092;43.582;19.528;2023-11-18T05:00:44;6.10;95.40
73360;DHT22;63092;43.582;19.528;2023-11-18T05:03:11;6.00;94.40
73360;DHT22;63092;43.582;19.528;2023-11-18T05:05:38;5.90;94.40
73360;DHT22;63092;43.582;19.528;2023-11-18T05:08:05;6.00;95.00
73360;DHT22;63092;43.582;19.528;2023-11-18T05:10:34;6.00;95.20
73360;DHT22;63092;43.582;19.528;2023-11-18T05:13:00;5.90;94.40
73360;DHT22;63092;43.582;19.528;2023-11-18T05:15:26;5.90;94.80
73360;DHT22;63092;43.582;19.528;2023-11-18T05:17:53;5.90;94.10
73360;DHT22;63092;43.582;19.528;2023-11-18T05:20:19;5.80;94.60
73360;DHT22;63092;43.582;19.528;2023-11-18T05:22:45;5.90;94.40
73360;DHT22;63092;43.582;19.528;2023-11-18T05:25:11;5.90;94.40
73360;DHT22;63092;43.582;19.528;2023-11-18T05:27:37;5.90;94.00
73360;DHT22;63092;43.582;19.528;2023-11-18T05:30:06;5.90;93.90
73360;DHT22;63092;43.582;19.528;2023-11-18T05:32:34;5.90;94.00
73360;DHT22;63092;43.582;19.528;2023-11-18T05:34:59;5.90;94.20
73360;DHT22;63092;43.582;19.528;2023-11-18T05:37:26;6.00;94.50
73360;DHT22;63092;43.582;19.528;2023-11-18T05:39:54;6.00;94.50
73360;DHT22;63092;43.582;19.528;2023-11-18T05:42:34;6.00;94.40
73360;DHT22;63092;43.582;19.528;2023-11-18T05:45:06;5.90;94.60
73360;DHT22;63092;43.582;19.528;2023-11-18T05:47:33;6.00;94.50
73360;DHT22;63092;43.582;19.528;2023-11-18T05:50:00;6.00;94.60
73360;DHT22;63092;43.582;19.528;2023-11-18T05:52:26;6.00;93.60
73360;DHT22;63092;43.582;19.528;2023-11-18T05:54:52;6.00;93.80
73360;DHT22;63092;43.582;19.528;2023-11-18T05:57:18;6.00;93.60
73360;DHT22;63092;43.582;19.528;2023-11-18T05:59:44;5.90;93.60
73360;DHT22;63092;43.582;19.528;2023-11-18T06:02:10;6.00;93.80
73360;DHT22;63092;43.582;19.528;2023-11-18T06:04:44;6.00;94.60
73360;DHT22;63092;43.582;19.528;2023-11-18T06:07:09;6.00;93.40
73360;DHT22;63092;43.582;19.528;2023-11-18T06:09:35;6.00;93.30
73360;DHT22;63092;43.582;19.528;2023-11-18T06:12:01;6.00;93.70
73360;DHT22;63092;43.582;19.528;2023-11-18T06:14:27;6.00;93.70
73360;DHT22;63092;43.582;19.528;2023-11-18T06:16:53;6.10;93.50
73360;DHT22;63092;43.582;19.528;2023-11-18T06:19:19;6.10;94.00
73360;DHT22;63092;43.582;19.528;2023-11-18T06:21:46;6.10;93.90
73360;DHT22;63092;43.582;19.528;2023-11-18T06:24:12;6.10;94.30
73360;DHT22;63092;43.582;19.528;2023-11-18T06:26:39;6.10;92.90
73360;DHT22;63092;43.582;19.528;2023-11-18T06:29:07;6.10;92.60
73360;DHT22;63092;43.582;19.528;2023-11-18T06:31:32;6.10;93.10
73360;DHT22;63092;43.582;19.528;2023-11-18T06:33:58;6.10;92.70
73360;DHT22;63092;43.582;19.528;2023-11-18T06:36:24;6.10;93.60
73360;DHT22;63092;43.582;19.528;2023-11-18T06:38:53;6.10;93.70
73360;DHT22;63092;43.582;19.528;2023-11-18T06:41:23;6.20;93.50
73360;DHT22;63092;43.582;19.528;2023-11-18T06:43:49;6.20;92.70
73360;DHT22;63092;43.582;19.528;2023-11-18T06:46:28;6.20;93.40
73360;DHT22;63092;43.582;19.528;2023-11-18T06:49:03;6.20;93.00
73360;DHT22;63092;43.582;19.528;2023-11-18T06:51:34;6.20;93.50
73360;DHT22;63092;43.582;19.528;2023-11-18T06:54:01;6.10;92.60
73360;DHT22;63092;43.582;19.528;2023-11-18T06:56:34;6.20;93.70
73360;DHT22;63092;43.582;19.528;2023-11-18T06:59:02;6.20;93.50
73360;DHT22;63092;43.582;19.528;2023-11-18T07:01:27;6.30;93.40
73360;DHT22;63092;43.582;19.528;2023-11-18T07:03:56;6.20;92.80
73360;DHT22;63092;43.582;19.528;2023-11-18T07:06:22;6.20;92.80
73360;DHT22;63092;43.582;19.528;2023-11-18T07:08:49;6.30;92.80
73360;DHT22;63092;43.582;19.528;2023-11-18T07:11:16;6.30;92.80
73360;DHT22;63092;43.582;19.528;2023-11-18T07:13:43;6.20;92.70
73360;DHT22;63092;43.582;19.528;2023-11-18T07:16:09;6.30;93.40
73360;DHT22;63092;43.582;19.528;2023-11-18T07:18:36;6.30;93.10
73360;DHT22;63092;43.582;19.528;2023-11-18T07:21:04;6.40;93.20
73360;DHT22;63092;43.582;19.528;2023-11-18T07:23:33;6.40;92.70
73360;DHT22;63092;43.582;19.528;2023-11-18T07:26:00;6.40;92.40
73360;DHT22;63092;43.582;19.528;2023-11-18T07:28:26;6.40;92.70
73360;DHT22;63092;43.582;19.528;2023-11-18T07:30:53;6.40;92.80
73360;DHT22;63092;43.582;19.528;2023-11-18T07:33:19;6.40;92.90
73360;DHT22;63092;43.582;19.528;2023-11-18T07:35:46;6.30;92.40
73360;DHT22;63092;43.582;19.528;2023-11-18T07:38:14;6.40;92.80
73360;DHT22;63092;43.582;19.528;2023-11-18T07:40:40;6.40;92.70
73360;DHT22;63092;43.582;19.528;2023-11-18T07:43:15;6.40;92.50
73360;DHT22;63092;43.582;19.528;2023-11-18T07:45:41;6.50;92.50
73360;DHT22;63092;43.582;19.528;2023-11-18T07:48:11;6.60;92.90
73360;DHT22;63092;43.582;19.528;2023-11-18T07:50:43;6.70;92.60
73360;DHT22;63092;43.582;19.528;2023-11-18T07:53:13;6.60;92.80
73360;DHT22;63092;43.582;19.528;2023-11-18T07:55:39;6.60;92.80
73360;DHT22;63092;43.582;19.528;2023-11-18T07:58:09;6.80;92.50
73360;DHT22;63092;43.582;19.528;2023-11-18T08:00:38;6.80;93.20
73360;DHT22;63092;43.582;19.528;2023-11-18T08:03:08;6.70;92.50
73360;DHT22;63092;43.582;19.528;2023-11-18T08:05:40;6.70;92.70
73360;DHT22;63092;43.582;19.528;2023-11-18T08:08:07;6.70;92.80
73360;DHT22;63092;43.582;19.528;2023-11-18T08:10:34;6.60;92.30
73360;DHT22;63092;43.582;19.528;2023-11-18T08:13:06;6.70;92.40
73360;DHT22;63092;43.582;19.528;2023-11-18T08:15:34;6.70;92.40
73360;DHT22;63092;43.582;19.528;2023-11-18T08:18:01;6.70;92.20
73360;DHT22;63092;43.582;19.528;2023-11-18T08:20:27;6.80;92.70
73360;DHT22;63092;43.582;19.528;2023-11-18T08:22:52;6.80;92.10
73360;DHT22;63092;43.582;19.528;2023-11-18T08:25:18;6.80;92.00
73360;DHT22;63092;43.582;19.528;2023-11-18T08:27:44;7.00;91.90
73360;DHT22;63092;43.582;19.528;2023-11-18T08:30:13;7.00;92.40
73360;DHT22;63092;43.582;19.528;2023-11-18T08:32:41;6.80;91.70
73360;DHT22;63092;43.582;19.528;2023-11-18T08:35:10;6.90;91.90
73360;DHT22;63092;43.582;19.528;2023-11-18T08:37:39;7.00;91.60
73360;DHT22;63092;43.582;19.528;2023-11-18T08:40:06;7.00;91.50
73360;DHT22;63092;43.582;19.528;2023-11-18T08:42:32;7.10;92.00
73360;DHT22;63092;43.582;19.528;2023-11-18T08:45:00;7.20;91.40
73360;DHT22;63092;43.582;19.528;2023-11-18T08:47:26;7.20;91.70
73360;DHT22;63092;43.582;19.528;2023-11-18T08:49:52;7.20;91.30
73360;DHT22;63092;43.582;19.528;2023-11-18T08:52:20;7.30;91.20
73360;DHT22;63092;43.582;19.528;2023-11-18T08:54:46;7.40;91.20
73360;DHT22;63092;43.582;19.528;2023-11-18T08:57:30;7.30;91.00
73360;DHT22;63092;43.582;19.528;2023-11-18T09:00:15;7.40;91.80
73360;DHT22;63092;43.582;19.528;2023-11-18T09:03:03;7.30;90.70
73360;DHT22;63092;43.582;19.528;2023-11-18T09:05:34;7.30;91.10
73360;DHT22;63092;43.582;19.528;2023-11-18T09:08:02;7.40;90.90
73360;DHT22;63092;43.582;19.528;2023-11-18T09:10:31;7.60;90.90
73360;DHT22;63092;43.582;19.528;2023-11-18T09:12:59;7.60;90.40
73360;DHT22;63092;43.582;19.528;2023-11-18T09:15:25;7.40;90.40
73360;DHT22;63092;43.582;19.528;2023-11-18T09:17:51;7.50;90.20
73360;DHT22;63092;43.582;19.528;2023-11-18T09:20:18;7.60;90.30
73360;DHT22;63092;43.582;19.528;2023-11-18T09:22:48;7.50;90.10
73360;DHT22;63092;43.582;19.528;2023-11-18T09:25:15;7.60;90.30
73360;DHT22;63092;43.582;19.528;2023-11-18T09:27:42;7.60;90.30
73360;DHT22;63092;43.582;19.528;2023-11-18T09:30:08;7.60;90.30
73360;DHT22;63092;43.582;19.528;2023-11-18T09:32:42;7.80;90.60
73360;DHT22;63092;43.582;19.528;2023-11-18T09:35:11;7.90;89.60
73360;DHT22;63092;43.582;19.528;2023-11-18T09:37:39;8.00;90.10
73360;DHT22;63092;43.582;19.528;2023-11-18T09:40:07;8.30;89.80
73360;DHT22;63092;43.582;19.528;2023-11-18T09:42:40;8.40;88.50
73360;DHT22;63092;43.582;19.528;2023-11-18T09:45:08;8.20;87.70
73360;DHT22;63092;43.582;19.528;2023-11-18T09:47:42;8.40;89.20
73360;DHT22;63092;43.582;19.528;2023-11-18T09:50:10;8.60;87.60
73360;DHT22;63092;43.582;19.528;2023-11-18T09:52:48;8.50;86.40
73360;DHT22;63092;43.582;19.528;2023-11-18T09:55:54;8.60;86.20
73360;DHT22;63092;43.582;19.528;2023-11-18T09:58:35;8.50;87.30
73360;DHT22;63092;43.582;19.528;2023-11-18T10:01:06;8.60;88.50
73360;DHT22;63092;43.582;19.528;2023-11-18T10:03:32;8.50;87.10
73360;DHT22;63092;43.582;19.528;2023-11-18T10:06:03;8.40;86.40
73360;DHT22;63092;43.582;19.528;2023-11-18T10:08:31;8.40;86.70
73360;DHT22;63092;43.582;19.528;2023-11-18T10:10:57;8.70;86.50
73360;DHT22;63092;43.582;19.528;2023-11-18T10:13:34;8.60;86.10
73360;DHT22;63092;43.582;19.528;2023-11-18T10:16:03;8.70;85.40
73360;DHT22;63092;43.582;19.528;2023-11-18T10:18:30;8.70;84.80
73360;DHT22;63092;43.582;19.528;2023-11-18T10:21:00;8.70;86.10
73360;DHT22;63092;43.582;19.528;2023-11-18T10:23:26;8.80;84.60
73360;DHT22;63092;43.582;19.528;2023-11-18T10:25:57;8.70;86.00
73360;DHT22;63092;43.582;19.528;2023-11-18T10:28:24;8.60;85.00
73360;DHT22;63092;43.582;19.528;2023-11-18T10:30:53;8.60;85.50
73360;DHT22;63092;43.582;19.528;2023-11-18T10:33:24;9.10;86.40
73360;DHT22;63092;43.582;19.528;2023-11-18T10:35:56;9.50;84.90
73360;DHT22;63092;43.582;19.528;2023-11-18T10:38:22;9.10;83.90
73360;DHT22;63092;43.582;19.528;2023-11-18T10:40:55;9.30;83.90
73360;DHT22;63092;43.582;19.528;2023-11-18T10:43:24;9.00;84.90
73360;DHT22;63092;43.582;19.528;2023-11-18T10:46:04;9.50;84.90
73360;DHT22;63092;43.582;19.528;2023-11-18T10:48:31;9.40;83.90
73360;DHT22;63092;43.582;19.528;2023-11-18T10:50:56;9.30;83.60
73360;DHT22;63092;43.582;19.528;2023-11-18T10:53:24;9.30;83.50
73360;DHT22;63092;43.582;19.528;2023-11-18T10:55:52;9.50;83.20
73360;DHT22;63092;43.582;19.528;2023-11-18T10:58:18;9.60;82.10
73360;DHT22;63092;43.582;19.528;2023-11-18T11:00:52;9.80;81.50
73360;DHT22;63092;43.582;19.528;2023-11-18T11:03:21;9.80;80.40
73360;DHT22;63092;43.582;19.528;2023-11-18T11:05:51;9.80;81.10
73360;DHT22;63092;43.582;19.528;2023-11-18T11:08:19;9.80;81.00
73360;DHT22;63092;43.582;19.528;2023-11-18T11:10:46;9.90;81.00
73360;DHT22;63092;43.582;19.528;2023-11-18T11:13:14;10.00;80.00
73360;DHT22;63092;43.582;19.528;2023-11-18T11:15:43;9.90;79.30
73360;DHT22;63092;43.582;19.528;2023-11-18T11:18:12;9.70;79.70
73360;DHT22;63092;43.582;19.528;2023-11-18T11:21:07;9.50;80.30
73360;DHT22;63092;43.582;19.528;2023-11-18T11:32:25;9.40;80.40
73360;DHT22;63092;43.582;19.528;2023-11-18T11:35:00;9.20;81.10
73360;DHT22;63092;43.582;19.528;2023-11-18T11:37:33;9.10;79.50
73360;DHT22;63092;43.582;19.528;2023-11-18T11:40:02;9.10;80.40
73360;DHT22;63092;43.582;19.528;2023-11-18T11:42:35;9.00;80.90
73360;DHT22;63092;43.582;19.528;2023-11-18T11:45:04;8.90;80.30
73360;DHT22;63092;43.582;19.528;2023-11-18T11:47:34;8.90;81.10
73360;DHT22;63092;43.582;19.528;2023-11-18T11:50:13;9.10;82.30
73360;DHT22;63092;43.582;19.528;2023-11-18T11:52:48;9.20;80.90
73360;DHT22;63092;43.582;19.528;2023-11-18T11:55:38;9.10;78.40
73360;DHT22;63092;43.582;19.528;2023-11-18T11:58:30;9.00;78.10
73360;DHT22;63092;43.582;19.528;2023-11-18T12:01:02;8.90;78.60
73360;DHT22;63092;43.582;19.528;2023-11-18T12:03:38;9.10;80.70
73360;DHT22;63092;43.582;19.528;2023-11-18T12:06:05;9.10;80.60
73360;DHT22;63092;43.582;19.528;2023-11-18T12:08:35;9.10;78.30
73360;DHT22;63092;43.582;19.528;2023-11-18T12:11:02;9.20;78.90
73360;DHT22;63092;43.582;19.528;2023-11-18T12:13:31;9.20;79.10
73360;DHT22;63092;43.582;19.528;2023-11-18T12:16:00;9.20;81.20
73360;DHT22;63092;43.582;19.528;2023-11-18T12:18:35;9.00;78.50
73360;DHT22;63092;43.582;19.528;2023-11-18T12:21:03;8.90;78.40
73360;DHT22;63092;43.582;19.528;2023-11-18T12:23:29;9.00;79.10
73360;DHT22;63092;43.582;19.528;2023-11-18T12:25:57;9.00;79.10
73360;DHT22;63092;43.582;19.528;2023-11-18T12:28:32;8.80;78.20
73360;DHT22;63092;43.582;19.528;2023-11-18T12:31:11;8.80;78.80
73360;DHT22;63092;43.582;19.528;2023-11-18T12:41:40;8.80;79.60
73360;DHT22;63092;43.582;19.528;2023-11-18T12:46:48;8.80;79.50
73360;DHT22;63092;43.582;19.528;2023-11-18T12:49:19;9.00;80.90
73360;DHT22;63092;43.582;19.528;2023-11-18T12:51:52;9.00;78.90
73360;DHT22;63092;43.582;19.528;2023-11-18T12:54:20;9.10;79.30
73360;DHT22;63092;43.582;19.528;2023-11-18T12:56:47;9.10;78.90
73360;DHT22;63092;43.582;19.528;2023-11-18T12:59:19;9.10;78.90
73360;DHT22;63092;43.582;19.528;2023-11-18T13:01:53;9.20;78.10
73360;DHT22;63092;43.582;19.528;2023-11-18T13:04:25;9.10;77.50
73360;DHT22;63092;43.582;19.528;2023-11-18T13:06:51;9.00;79.00
73360;DHT22;63092;43.582;19.528;2023-11-18T13:09:18;9.00;77.80
73360;DHT22;63092;43.582;19.528;2023-11-18T13:12:02;9.10;78.30
73360;DHT22;63092;43.582;19.528;2023-11-18T13:14:32;9.10;78.30
73360;DHT22;63092;43.582;19.528;2023-11-18T13:17:09;9.00;77.90
73360;DHT22;63092;43.582;19.528;2023-11-18T13:19:37;9.00;77.70
73360;DHT22;63092;43.582;19.528;2023-11-18T13:22:04;8.90;78.30
73360;DHT22;63092;43.582;19.528;2023-11-18T13:24:30;8.90;80.40
73360;DHT22;63092;43.582;19.528;2023-11-18T13:26:58;9.00;78.50
73360;DHT22;63092;43.582;19.528;2023-11-18T13:29:29;8.90;78.30
73360;DHT22;63092;43.582;19.528;2023-11-18T13:31:55;9.00;78.90
73360;DHT22;63092;43.582;19.528;2023-11-18T13:34:23;8.90;78.00
73360;DHT22;63092;43.582;19.528;2023-11-18T13:36:50;9.00;79.60
73360;DHT22;63092;43.582;19.528;2023-11-18T13:39:19;8.90;78.90
73360;DHT22;63092;43.582;19.528;2023-11-18T13:41:50;8.80;78.20
73360;DHT22;63092;43.582;19.528;2023-11-18T13:44:34;8.90;79.30
73360;DHT22;63092;43.582;19.528;2023-11-18T13:47:01;8.90;78.80
73360;DHT22;63092;43.582;19.528;2023-11-18T13:49:31;8.70;78.60
73360;DHT22;63092;43.582;19.528;2023-11-18T13:51:57;8.60;79.60
73360;DHT22;63092;43.582;19.528;2023-11-18T13:54:24;8.70;79.90
73360;DHT22;63092;43.582;19.528;2023-11-18T13:56:51;8.60;80.30
73360;DHT22;63092;43.582;19.528;2023-11-18T13:59:18;8.70;80.40
73360;DHT22;63092;43.582;19.528;2023-11-18T14:01:44;8.70;81.00
73360;DHT22;63092;43.582;19.528;2023-11-18T14:04:11;8.70;80.60
73360;DHT22;63092;43.582;19.528;2023-11-18T14:06:37;8.70;79.80
73360;DHT22;63092;43.582;19.528;2023-11-18T14:09:05;8.60;79.00
73360;DHT22;63092;43.582;19.528;2023-11-18T14:11:31;8.50;79.70
73360;DHT22;63092;43.582;19.528;2023-11-18T14:13:57;8.50;79.20
73360;DHT22;63092;43.582;19.528;2023-11-18T14:16:24;8.40;80.20
73360;DHT22;63092;43.582;19.528;2023-11-18T14:18:51;8.40;80.10
73360;DHT22;63092;43.582;19.528;2023-11-18T14:21:18;8.40;79.80
73360;DHT22;63092;43.582;19.528;2023-11-18T14:23:44;8.40;81.20
73360;DHT22;63092;43.582;19.528;2023-11-18T14:26:10;8.30;79.90
73360;DHT22;63092;43.582;19.528;2023-11-18T14:28:37;8.30;80.80
73360;DHT22;63092;43.582;19.528;2023-11-18T14:31:06;8.30;80.40
73360;DHT22;63092;43.582;19.528;2023-11-18T14:33:33;8.20;79.80
73360;DHT22;63092;43.582;19.528;2023-11-18T14:36:02;8.30;81.50
73360;DHT22;63092;43.582;19.528;2023-11-18T14:38:30;8.30;79.90
73360;DHT22;63092;43.582;19.528;2023-11-18T14:40:56;8.30;81.50
73360;DHT22;63092;43.582;19.528;2023-11-18T14:43:22;8.30;81.00
73360;DHT22;63092;43.582;19.528;2023-11-18T14:45:47;8.30;81.30
73360;DHT22;63092;43.582;19.528;2023-11-18T14:48:14;8.30;81.50
73360;DHT22;63092;43.582;19.528;2023-11-18T14:50:39;8.40;81.00
73360;DHT22;63092;43.582;19.528;2023-11-18T14:53:05;8.30;81.50
73360;DHT22;63092;43.582;19.528;2023-11-18T14:55:31;8.40;81.40
73360;DHT22;63092;43.582;19.528;2023-11-18T14:57:58;8.40;82.00
73360;DHT22;63092;43.582;19.528;2023-11-18T15:00:24;8.40;81.40
73360;DHT22;63092;43.582;19.528;2023-11-18T15:02:53;8.40;81.90
73360;DHT22;63092;43.582;19.528;2023-11-18T15:05:21;8.30;81.00
73360;DHT22;63092;43.582;19.528;2023-11-18T15:07:51;8.30;82.20
73360;DHT22;63092;43.582;19.528;2023-11-18T15:10:19;8.40;81.20
73360;DHT22;63092;43.582;19.528;2023-11-18T15:12:58;8.40;81.50
73360;DHT22;63092;43.582;19.528;2023-11-18T15:15:30;8.40;82.20
73360;DHT22;63092;43.582;19.528;2023-11-18T15:18:01;8.30;81.30
73360;DHT22;63092;43.582;19.528;2023-11-18T15:20:30;8.30;81.80
73360;DHT22;63092;43.582;19.528;2023-11-18T15:22:56;8.40;82.60
73360;DHT22;63092;43.582;19.528;2023-11-18T15:25:22;8.40;82.80
73360;DHT22;63092;43.582;19.528;2023-11-18T15:27:48;8.40;82.60
73360;DHT22;63092;43.582;19.528;2023-11-18T15:30:15;8.40;82.50
73360;DHT22;63092;43.582;19.528;2023-11-18T15:32:43;8.40;83.20
73360;DHT22;63092;43.582;19.528;2023-11-18T15:35:10;8.30;81.80
73360;DHT22;63092;43.582;19.528;2023-11-18T15:37:41;8.30;82.40
73360;DHT22;63092;43.582;19.528;2023-11-18T15:40:10;8.10;82.80
73360;DHT22;63092;43.582;19.528;2023-11-18T15:42:43;8.20;83.30
73360;DHT22;63092;43.582;19.528;2023-11-18T15:45:15;8.20;82.40
73360;DHT22;63092;43.582;19.528;2023-11-18T15:47:42;8.20;85.20
73360;DHT22;63092;43.582;19.528;2023-11-18T15:50:09;8.20;83.60
73360;DHT22;63092;43.582;19.528;2023-11-18T15:52:38;8.10;82.60
73360;DHT22;63092;43.582;19.528;2023-11-18T15:55:05;8.10;82.50
73360;DHT22;63092;43.582;19.528;2023-11-18T15:57:47;8.10;82.80